createdAt,value
2023-03-29T00:02:07.978Z,6.73
2023-03-29T00:04:35.404Z,6.74
2023-03-29T00:07:04.650Z,6.76
2023-03-29T00:09:33.553Z,6.79
2023-03-29T00:12:01.333Z,6.87
2023-03-29T00:14:31.118Z,6.88
2023-03-29T00:16:59.278Z,6.92
2023-03-29T00:19:26.907Z,6.87
2023-03-29T00:21:53.862Z,6.93
2023-03-29T00:24:21.527Z,6.92
2023-03-29T00:26:48.838Z,6.91
2023-03-29T00:29:16.796Z,6.90
2023-03-29T00:31:52.710Z,6.88
2023-03-29T00:34:30.922Z,6.90
2023-03-29T00:36:58.532Z,6.86
2023-03-29T00:39:28.134Z,6.88
2023-03-29T00:41:56.091Z,6.84
2023-03-29T00:45:00.232Z,6.81
2023-03-29T00:47:33.444Z,6.87
2023-03-29T00:50:29.852Z,6.86
2023-03-29T00:53:15.268Z,6.77
2023-03-29T00:55:52.736Z,6.80
2023-03-29T00:58:36.361Z,6.71
2023-03-29T01:01:11.173Z,6.74
2023-03-29T01:03:46.582Z,6.74
2023-03-29T01:06:18.448Z,6.71
2023-03-29T01:08:54.181Z,6.54
2023-03-29T01:11:27.524Z,6.57
2023-03-29T01:14:01.101Z,6.55
2023-03-29T01:16:30.518Z,6.58
2023-03-29T01:19:00.622Z,6.57
2023-03-29T01:21:51.752Z,6.47
2023-03-29T01:24:38.083Z,6.46
2023-03-29T01:27:36.230Z,6.44
2023-03-29T01:30:10.493Z,6.49
2023-03-29T01:32:50.621Z,6.52
2023-03-29T01:35:28.342Z,6.55
2023-03-29T01:38:09.684Z,6.51
2023-03-29T01:40:36.946Z,6.54
2023-03-29T01:43:19.375Z,6.59
2023-03-29T01:45:55.664Z,6.61
2023-03-29T01:48:28.454Z,6.64
2023-03-29T01:51:11.664Z,6.64
2023-03-29T01:53:47.794Z,6.67
2023-03-29T01:56:18.923Z,6.66
2023-03-29T01:58:50.323Z,6.72
2023-03-29T02:01:26.095Z,6.73
2023-03-29T02:03:57.054Z,6.67
2023-03-29T02:06:28.276Z,6.65
2023-03-29T02:08:58.451Z,6.61
2023-03-29T02:11:27.473Z,6.58
2023-03-29T02:13:54.371Z,6.62
2023-03-29T02:16:21.629Z,6.64
2023-03-29T02:18:50.559Z,6.65
2023-03-29T02:21:51.887Z,6.65
2023-03-29T02:24:21.855Z,6.65
2023-03-29T02:26:49.460Z,6.66
2023-03-29T02:29:17.272Z,6.67
2023-03-29T02:31:54.067Z,6.69
2023-03-29T02:34:28.292Z,6.73
2023-03-29T02:37:11.122Z,6.70
2023-03-29T02:39:42.144Z,6.73
2023-03-29T02:42:10.589Z,6.77
2023-03-29T02:44:42.070Z,6.72
2023-03-29T02:47:18.930Z,6.71
2023-03-29T02:49:46.041Z,6.66
2023-03-29T02:52:17.002Z,6.69
2023-03-29T02:54:48.234Z,6.69
2023-03-29T02:57:15.247Z,6.68
2023-03-29T02:59:44.773Z,6.60
2023-03-29T03:02:12.336Z,6.65
2023-03-29T03:04:40.087Z,6.65
2023-03-29T03:07:07.128Z,6.72
2023-03-29T03:09:34.473Z,6.73
2023-03-29T03:12:02.013Z,6.74
2023-03-29T03:14:29.551Z,6.78
2023-03-29T03:16:58.419Z,6.82
2023-03-29T03:19:25.300Z,6.76
2023-03-29T03:21:52.344Z,6.81
2023-03-29T03:24:21.955Z,6.80
2023-03-29T03:26:50.148Z,6.78
2023-03-29T03:29:19.368Z,6.73
2023-03-29T03:32:16.393Z,6.78
2023-03-29T03:35:11.850Z,6.75
2023-03-29T03:37:41.103Z,6.80
2023-03-29T03:40:11.856Z,6.87
2023-03-29T03:42:42.513Z,6.84
2023-03-29T03:45:10.716Z,6.92
2023-03-29T03:47:52.604Z,6.85
2023-03-29T03:50:24.894Z,6.97
2023-03-29T03:52:52.269Z,6.99
2023-03-29T03:55:21.766Z,7.00
2023-03-29T03:58:02.171Z,7.04
2023-03-29T04:00:29.863Z,6.97
2023-03-29T04:03:15.784Z,7.05
2023-03-29T04:05:45.334Z,7.04
2023-03-29T04:08:14.936Z,7.09
2023-03-29T04:11:08.445Z,7.09
2023-03-29T04:13:38.042Z,7.09
2023-03-29T04:16:28.686Z,7.19
2023-03-29T04:19:01.758Z,7.36
2023-03-29T04:21:29.164Z,7.31
2023-03-29T04:23:56.284Z,7.32
2023-03-29T04:26:23.602Z,7.49
2023-03-29T04:28:57.263Z,7.39
2023-03-29T04:31:38.687Z,7.46
2023-03-29T04:34:22.591Z,7.57
2023-03-29T04:36:52.416Z,7.36
2023-03-29T04:39:23.093Z,7.45
2023-03-29T04:41:54.980Z,7.43
2023-03-29T04:44:27.312Z,7.43
2023-03-29T04:46:57.452Z,7.51
2023-03-29T04:49:27.606Z,7.50
2023-03-29T04:51:55.154Z,7.51
2023-03-29T04:54:26.528Z,7.66
2023-03-29T04:57:19.086Z,7.61
2023-03-29T04:59:59.293Z,7.54
2023-03-29T05:02:55.301Z,7.67
2023-03-29T05:05:22.829Z,7.68
2023-03-29T05:07:51.319Z,7.71
2023-03-29T05:10:23.659Z,7.81
2023-03-29T05:12:54.315Z,7.84
2023-03-29T05:15:25.807Z,7.75
2023-03-29T05:17:53.668Z,7.79
2023-03-29T05:20:22.129Z,7.85
2023-03-29T05:22:49.559Z,7.77
2023-03-29T05:25:39.133Z,7.76
2023-03-29T05:28:06.671Z,7.75
2023-03-29T05:30:33.938Z,7.91
2023-03-29T05:33:09.289Z,7.90
2023-03-29T05:35:36.691Z,7.99
2023-03-29T05:38:07.181Z,8.05
2023-03-29T05:40:35.948Z,8.19
2023-03-29T05:43:29.140Z,8.41
2023-03-29T05:45:56.801Z,8.45
2023-03-29T05:48:24.541Z,8.50
2023-03-29T05:50:53.645Z,8.39
2023-03-29T05:53:23.821Z,8.49
2023-03-29T05:55:51.695Z,8.56
2023-03-29T05:58:21.705Z,8.60
2023-03-29T06:00:50.076Z,8.64
2023-03-29T06:03:47.583Z,8.63
2023-03-29T06:06:16.841Z,8.68
2023-03-29T06:08:44.818Z,8.90
2023-03-29T06:11:47.680Z,8.83
2023-03-29T06:14:15.892Z,9.01
2023-03-29T06:16:48.432Z,8.80
2023-03-29T06:19:16.314Z,8.80
2023-03-29T06:21:43.867Z,8.88
2023-03-29T06:24:14.388Z,8.86
2023-03-29T06:26:47.193Z,8.82
2023-03-29T06:29:14.863Z,8.77
2023-03-29T06:31:43.165Z,8.83
2023-03-29T06:34:22.740Z,8.79
2023-03-29T06:37:13.108Z,8.79
2023-03-29T06:39:41.249Z,8.94
2023-03-29T06:42:24.812Z,8.98
2023-03-29T06:45:29.482Z,9.07
2023-03-29T06:47:59.003Z,8.90
2023-03-29T06:50:26.387Z,8.99
2023-03-29T06:53:08.100Z,8.84
2023-03-29T06:55:36.352Z,8.88
2023-03-29T06:58:34.471Z,8.90
2023-03-29T07:01:08.475Z,8.59
2023-03-29T07:03:52.878Z,8.37
2023-03-29T07:06:24.493Z,8.43
2023-03-29T07:08:52.641Z,8.47
2023-03-29T07:11:50.475Z,8.49
2023-03-29T07:14:28.627Z,8.54
2023-03-29T07:16:58.704Z,8.64
2023-03-29T07:19:39.430Z,8.53
2023-03-29T07:22:19.767Z,8.37
2023-03-29T07:24:51.224Z,8.27
2023-03-29T07:27:18.266Z,8.43
2023-03-29T07:29:49.286Z,8.41
2023-03-29T07:32:17.944Z,8.37
2023-03-29T07:34:45.063Z,8.39
2023-03-29T07:37:25.269Z,8.33
2023-03-29T07:39:53.653Z,8.17
2023-03-29T07:42:46.955Z,8.36
2023-03-29T07:45:20.597Z,8.48
2023-03-29T07:48:04.038Z,8.53
2023-03-29T07:50:51.260Z,8.55
2023-03-29T07:53:23.269Z,8.55
2023-03-29T07:55:55.013Z,8.69
2023-03-29T07:58:41.531Z,8.62
2023-03-29T08:01:08.708Z,8.66
2023-03-29T08:03:58.846Z,8.56
2023-03-29T08:06:47.460Z,8.58
2023-03-29T08:09:14.541Z,8.60
2023-03-29T08:11:44.021Z,8.49
2023-03-29T08:14:23.925Z,8.59
2023-03-29T08:17:09.873Z,8.69
2023-03-29T08:19:51.444Z,8.94
2023-03-29T08:22:23.858Z,8.98
2023-03-29T08:25:29.855Z,9.07
2023-03-29T08:27:57.948Z,9.22
2023-03-29T08:30:42.232Z,9.46
2023-03-29T08:33:09.652Z,9.50
2023-03-29T08:35:37.001Z,9.54
2023-03-29T08:38:16.402Z,9.55
2023-03-29T08:40:43.622Z,9.49
2023-03-29T08:43:16.748Z,9.29
2023-03-29T08:46:19.225Z,9.46
2023-03-29T08:48:54.312Z,9.45
2023-03-29T08:51:23.134Z,9.26
2023-03-29T08:54:02.403Z,9.08
2023-03-29T08:56:51.486Z,9.18
2023-03-29T08:59:28.868Z,9.12
2023-03-29T09:01:58.081Z,9.12
2023-03-29T09:04:36.661Z,8.93
2023-03-29T09:07:27.455Z,9.14
2023-03-29T09:09:55.993Z,9.31
2023-03-29T09:13:07.759Z,9.25
2023-03-29T09:15:46.752Z,9.14
2023-03-29T09:18:47.721Z,9.14
2023-03-29T09:21:59.333Z,8.88
2023-03-29T09:24:42.823Z,8.94
2023-03-29T09:27:32.497Z,9.02
2023-03-29T09:30:26.344Z,9.08
2023-03-29T09:33:42.928Z,8.93
2023-03-29T09:36:30.199Z,8.89
2023-03-29T09:38:57.646Z,8.83
2023-03-29T09:41:33.886Z,8.65
2023-03-29T09:44:10.863Z,8.64
2023-03-29T09:46:47.616Z,8.77
2023-03-29T09:49:21.981Z,8.69
2023-03-29T09:51:50.393Z,8.54
2023-03-29T09:54:19.594Z,8.61
2023-03-29T09:57:05.073Z,8.75
2023-03-29T09:59:32.574Z,8.63
2023-03-29T10:02:13.019Z,8.65
2023-03-29T10:04:42.587Z,8.64
2023-03-29T10:07:18.207Z,8.80
2023-03-29T10:09:51.137Z,8.81
2023-03-29T10:12:21.010Z,8.88
2023-03-29T10:14:54.291Z,8.97
2023-03-29T10:17:23.690Z,9.02
2023-03-29T10:19:52.831Z,9.12
2023-03-29T10:22:24.877Z,9.03
2023-03-29T10:24:53.483Z,8.80
2023-03-29T10:27:24.583Z,8.98
2023-03-29T10:29:52.228Z,9.04
2023-03-29T10:32:23.072Z,9.05
2023-03-29T10:34:52.229Z,8.95
2023-03-29T10:37:21.274Z,8.89
2023-03-29T10:39:49.240Z,8.78
2023-03-29T10:42:19.593Z,8.83
2023-03-29T10:44:55.530Z,8.79
2023-03-29T10:47:22.804Z,8.82
2023-03-29T10:49:58.983Z,8.68
2023-03-29T10:52:26.146Z,8.63
2023-03-29T10:54:55.214Z,8.80
2023-03-29T10:57:42.555Z,8.74
2023-03-29T11:00:57.742Z,8.87
2023-03-29T11:04:12.176Z,8.78
2023-03-29T11:07:13.324Z,8.79
2023-03-29T11:10:19.278Z,8.83
2023-03-29T11:13:10.451Z,8.78
2023-03-29T11:16:18.816Z,8.70
2023-03-29T11:18:55.389Z,8.77
2023-03-29T11:21:28.209Z,8.56
2023-03-29T11:24:16.888Z,8.69
2023-03-29T11:27:16.073Z,8.63
2023-03-29T11:30:12.320Z,8.67
2023-03-29T11:32:46.121Z,8.64
2023-03-29T11:35:59.570Z,8.57
2023-03-29T11:38:37.578Z,8.54
2023-03-29T11:41:28.330Z,8.54
2023-03-29T11:44:01.880Z,8.46
2023-03-29T11:46:33.910Z,8.36
2023-03-29T11:49:15.375Z,8.26
2023-03-29T11:51:52.150Z,8.29
2023-03-29T11:54:25.469Z,8.29
2023-03-29T11:56:57.455Z,8.26
2023-03-29T11:59:30.349Z,8.25
2023-03-29T12:02:10.026Z,8.22
2023-03-29T12:04:48.557Z,8.24
2023-03-29T12:07:32.349Z,8.28
2023-03-29T12:10:07.219Z,8.24
2023-03-29T12:12:50.825Z,8.22
2023-03-29T12:15:22.915Z,8.28
2023-03-29T12:18:02.149Z,8.26
2023-03-29T12:20:34.214Z,8.18
2023-03-29T12:23:02.890Z,8.18
2023-03-29T12:25:52.939Z,8.18
2023-03-29T12:28:27.971Z,8.22
2023-03-29T12:31:25.676Z,8.27
2023-03-29T12:34:15.786Z,8.17
2023-03-29T12:37:12.990Z,8.13
2023-03-29T12:39:46.701Z,8.11
2023-03-29T12:42:32.467Z,8.06
2023-03-29T12:45:30.461Z,8.08
2023-03-29T12:47:58.135Z,8.12
2023-03-29T12:50:28.715Z,8.11
2023-03-29T12:53:15.136Z,8.12
2023-03-29T12:55:42.485Z,8.03
2023-03-29T12:58:36.747Z,8.09
2023-03-29T13:01:23.573Z,8.04
2023-03-29T13:03:52.221Z,8.02
2023-03-29T13:06:35.400Z,8.17
2023-03-29T13:09:23.062Z,8.39
2023-03-29T13:11:58.587Z,8.33
2023-03-29T13:14:30.364Z,8.20
2023-03-29T13:17:28.288Z,8.29
2023-03-29T13:20:13.766Z,8.19
2023-03-29T13:23:15.592Z,8.05
2023-03-29T13:26:12.246Z,7.90
2023-03-29T13:29:09.726Z,7.83
2023-03-29T13:32:11.247Z,7.89
2023-03-29T13:34:47.683Z,7.87
2023-03-29T13:37:33.014Z,7.89
2023-03-29T13:40:00.309Z,7.84
2023-03-29T13:42:33.371Z,7.90
2023-03-29T13:45:09.349Z,7.91
2023-03-29T13:47:54.877Z,7.84
2023-03-29T13:50:36.369Z,7.88
2023-03-29T13:53:31.215Z,7.86
2023-03-29T13:56:02.045Z,7.79
2023-03-29T13:58:44.491Z,7.83
2023-03-29T14:01:36.605Z,7.88
2023-03-29T14:04:06.205Z,7.76
2023-03-29T14:06:37.327Z,7.74
2023-03-29T14:09:08.682Z,7.70
2023-03-29T14:11:36.709Z,7.78
2023-03-29T14:14:11.024Z,7.77
2023-03-29T14:16:40.744Z,7.65
2023-03-29T14:19:30.211Z,7.65
2023-03-29T14:21:59.399Z,7.66
2023-03-29T14:24:34.308Z,7.63
2023-03-29T14:27:04.413Z,7.66
2023-03-29T14:29:34.898Z,7.60
2023-03-29T14:32:12.814Z,7.67
2023-03-29T14:34:40.694Z,7.71
2023-03-29T14:37:11.575Z,7.78
2023-03-29T14:39:41.126Z,7.79
2023-03-29T14:42:16.351Z,7.87
2023-03-29T14:44:45.015Z,7.82
2023-03-29T14:47:19.123Z,7.78
2023-03-29T14:49:47.480Z,7.81
2023-03-29T14:52:15.364Z,7.72
2023-03-29T14:54:47.239Z,7.85
2023-03-29T14:57:18.689Z,7.88
2023-03-29T14:59:54.903Z,7.85
2023-03-29T15:02:54.900Z,7.88
2023-03-29T15:05:41.196Z,7.87
2023-03-29T15:08:14.962Z,7.93
2023-03-29T15:10:44.847Z,7.88
2023-03-29T15:13:19.834Z,7.85
2023-03-29T15:15:51.204Z,7.86
2023-03-29T15:18:21.324Z,7.94
2023-03-29T15:20:48.596Z,7.96
2023-03-29T15:23:15.506Z,7.95
2023-03-29T15:25:59.163Z,7.93
2023-03-29T15:28:32.768Z,8.00
2023-03-29T15:31:10.949Z,8.02
2023-03-29T15:33:43.187Z,7.91
2023-03-29T15:36:12.905Z,7.95
2023-03-29T15:38:44.669Z,7.90
2023-03-29T15:41:14.308Z,7.94
2023-03-29T15:43:42.576Z,7.99
2023-03-29T15:46:12.922Z,7.99
2023-03-29T15:48:40.976Z,7.92
2023-03-29T15:51:10.826Z,8.02
2023-03-29T15:53:38.107Z,8.07
2023-03-29T15:56:08.051Z,7.97
2023-03-29T15:58:37.110Z,8.02
2023-03-29T16:01:12.434Z,8.06
2023-03-29T16:03:40.290Z,8.04
2023-03-29T16:06:13.715Z,8.04
2023-03-29T16:08:42.041Z,8.00
2023-03-29T16:11:09.406Z,7.99
2023-03-29T16:13:36.537Z,8.10
2023-03-29T16:16:04.033Z,8.07
2023-03-29T16:18:31.142Z,7.97
2023-03-29T16:20:59.477Z,8.06
2023-03-29T16:23:26.643Z,8.08
2023-03-29T16:25:53.703Z,8.14
2023-03-29T16:28:20.900Z,8.07
2023-03-29T16:30:48.668Z,8.09
2023-03-29T16:33:16.221Z,8.09
2023-03-29T16:35:43.446Z,8.08
2023-03-29T16:38:10.469Z,8.12
2023-03-29T16:40:37.733Z,8.14
2023-03-29T16:43:04.703Z,8.05
2023-03-29T16:45:32.004Z,8.21
2023-03-29T16:47:59.045Z,8.17
2023-03-29T16:50:26.338Z,8.20
2023-03-29T16:52:53.336Z,8.08
2023-03-29T16:55:20.574Z,8.19
2023-03-29T16:57:48.944Z,8.12
2023-03-29T17:00:19.688Z,8.21
2023-03-29T17:02:49.772Z,8.23
2023-03-29T17:05:18.673Z,8.28
2023-03-29T17:07:47.038Z,8.26
2023-03-29T17:10:14.277Z,8.24
2023-03-29T17:12:41.597Z,8.21
2023-03-29T17:15:09.538Z,8.31
2023-03-29T17:17:37.913Z,8.27
2023-03-29T17:20:08.746Z,8.28
2023-03-29T17:22:36.178Z,8.39
2023-03-29T17:25:07.283Z,8.31
2023-03-29T17:27:35.955Z,8.33
2023-03-29T17:30:03.794Z,8.41
2023-03-29T17:32:31.491Z,8.40
2023-03-29T17:34:59.447Z,8.37
2023-03-29T17:37:27.909Z,8.34
2023-03-29T17:39:55.717Z,8.39
2023-03-29T17:42:22.597Z,8.35
2023-03-29T17:44:49.612Z,8.40
2023-03-29T17:47:16.713Z,8.33
2023-03-29T17:49:43.656Z,8.33
2023-03-29T17:52:10.889Z,8.26
2023-03-29T17:54:37.897Z,8.26
2023-03-29T17:57:05.110Z,8.22
2023-03-29T17:59:32.006Z,8.28
2023-03-29T18:02:00.173Z,8.33
2023-03-29T18:04:27.318Z,8.29
2023-03-29T18:06:57.340Z,8.26
2023-03-29T18:09:27.492Z,8.32
2023-03-29T18:11:55.641Z,8.29
2023-03-29T18:14:22.600Z,8.28
2023-03-29T18:16:49.578Z,8.37
2023-03-29T18:19:16.498Z,8.34
2023-03-29T18:21:43.522Z,8.33
2023-03-29T18:24:11.548Z,8.36
2023-03-29T18:26:38.539Z,8.36
2023-03-29T18:29:07.361Z,8.37
2023-03-29T18:31:36.333Z,8.41
2023-03-29T18:34:04.149Z,8.44
2023-03-29T18:36:34.109Z,8.42
2023-03-29T18:39:05.832Z,8.44
2023-03-29T18:41:37.420Z,8.39
2023-03-29T18:44:04.839Z,8.42
2023-03-29T18:46:35.214Z,8.38
2023-03-29T18:49:02.914Z,8.50
2023-03-29T18:51:31.149Z,8.43
2023-03-29T18:53:58.200Z,8.48
2023-03-29T18:56:25.756Z,8.40
2023-03-29T18:58:53.873Z,8.33
2023-03-29T19:01:21.328Z,8.23
2023-03-29T19:03:51.684Z,8.32
2023-03-29T19:10:14.094Z,8.32
2023-03-29T19:16:17.916Z,8.31
2023-03-29T19:18:52.104Z,8.23
2023-03-29T19:22:00.554Z,8.23
2023-03-29T19:25:20.168Z,8.27
2023-03-29T19:32:14.608Z,8.24
2023-03-29T19:34:43.307Z,8.19
2023-03-29T19:37:30.342Z,8.26
2023-03-29T19:39:57.393Z,8.29
2023-03-29T19:42:36.334Z,8.23
2023-03-29T19:45:12.737Z,8.24
2023-03-29T19:47:48.014Z,8.25
2023-03-29T19:50:19.242Z,8.27
2023-03-29T19:52:50.465Z,8.24
2023-03-29T19:55:18.683Z,8.19
2023-03-29T19:57:45.644Z,8.14
2023-03-29T20:00:14.938Z,8.15
2023-03-29T20:02:42.572Z,8.16
2023-03-29T20:05:09.961Z,8.12
2023-03-29T20:07:36.880Z,8.18
2023-03-29T20:10:04.148Z,8.21
2023-03-29T20:12:31.085Z,8.13
2023-03-29T20:14:58.067Z,8.14
2023-03-29T20:17:25.291Z,8.13
2023-03-29T20:19:54.041Z,8.18
2023-03-29T20:22:21.821Z,8.18
2023-03-29T20:24:48.777Z,8.23
2023-03-29T20:27:15.917Z,8.27
2023-03-29T20:29:43.273Z,8.21
2023-03-29T20:32:10.314Z,8.20
2023-03-29T20:34:37.581Z,8.26
2023-03-29T20:37:04.875Z,8.17
2023-03-29T20:39:31.929Z,8.24
2023-03-29T20:41:59.266Z,8.26
2023-03-29T20:44:28.366Z,8.32
2023-03-29T20:47:08.270Z,8.31
2023-03-29T20:49:39.363Z,8.22
2023-03-29T20:52:09.403Z,8.27
2023-03-29T20:54:37.316Z,8.21
2023-03-29T20:57:09.649Z,8.23
2023-03-29T20:59:38.179Z,8.17
2023-03-29T21:02:05.303Z,8.15
2023-03-29T21:04:32.455Z,8.29
2023-03-29T21:07:01.656Z,8.37
2023-03-29T21:09:31.154Z,8.35
2023-03-29T21:11:58.107Z,8.36
2023-03-29T21:14:26.755Z,8.32
2023-03-29T21:16:53.719Z,8.29
2023-03-29T21:19:21.282Z,8.31
2023-03-29T21:21:52.273Z,8.26
2023-03-29T21:24:19.440Z,8.36
2023-03-29T21:26:46.724Z,8.28
2023-03-29T21:29:14.081Z,8.22
2023-03-29T21:31:41.178Z,8.29
2023-03-29T21:34:08.216Z,8.27
2023-03-29T21:36:35.093Z,8.19
2023-03-29T21:39:02.129Z,8.09
2023-03-29T21:41:29.082Z,8.16
2023-03-29T21:43:56.165Z,8.14
2023-03-29T21:46:24.734Z,8.20
2023-03-29T21:48:52.221Z,8.19
2023-03-29T21:51:19.182Z,8.22
2023-03-29T21:53:46.160Z,8.08
2023-03-29T21:56:13.229Z,8.20
2023-03-29T21:58:40.162Z,8.28
2023-03-29T22:01:09.965Z,8.24
2023-03-29T22:03:38.194Z,8.23
2023-03-29T22:06:10.642Z,8.23
2023-03-29T22:08:40.572Z,8.18
2023-03-29T22:11:10.975Z,8.22
2023-03-29T22:13:38.057Z,8.24
2023-03-29T22:16:06.158Z,8.25
2023-03-29T22:18:46.880Z,8.18
2023-03-29T22:21:23.497Z,8.14
2023-03-29T22:23:51.883Z,8.26
2023-03-29T22:26:21.559Z,8.22
2023-03-29T22:28:48.539Z,8.28
2023-03-29T22:31:18.837Z,8.22
2023-03-29T22:33:46.795Z,8.23
2023-03-29T22:36:16.751Z,8.27
2023-03-29T22:38:45.820Z,8.14
2023-03-29T22:41:13.708Z,8.24
2023-03-29T22:43:41.388Z,8.25
2023-03-29T22:46:11.775Z,8.33
2023-03-29T22:48:39.434Z,8.35
2023-03-29T22:51:06.763Z,8.29
2023-03-29T22:53:34.241Z,8.32
2023-03-29T22:56:01.470Z,8.26
2023-03-29T22:58:31.887Z,8.25
2023-03-29T23:00:59.001Z,8.34
2023-03-29T23:03:26.685Z,8.44
2023-03-29T23:05:56.468Z,8.49
2023-03-29T23:08:25.032Z,8.51
2023-03-29T23:10:52.790Z,8.49
2023-03-29T23:13:24.309Z,8.53
2023-03-29T23:15:53.154Z,8.53
2023-03-29T23:18:21.287Z,8.43
2023-03-29T23:20:50.305Z,8.44
2023-03-29T23:23:19.091Z,8.50
2023-03-29T23:25:47.608Z,8.51
2023-03-29T23:28:16.962Z,8.49
2023-03-29T23:30:44.042Z,8.43
2023-03-29T23:33:11.814Z,8.43
2023-03-29T23:35:38.805Z,8.31
2023-03-29T23:38:06.315Z,8.33
2023-03-29T23:40:33.401Z,8.37
2023-03-29T23:43:00.385Z,8.38
2023-03-29T23:45:30.623Z,8.31
2023-03-29T23:47:57.801Z,8.38
2023-03-29T23:50:28.606Z,8.43
2023-03-29T23:52:55.673Z,8.36
2023-03-29T23:55:22.631Z,8.26
2023-03-29T23:57:49.506Z,8.33
